sensor_id;sensor_type;location;lat;lon;timestamp;P1;durP1;ratioP1;P2;durP2;ratioP2
9689;SDS011;4884;42.614;23.340;2023-03-14T00:01:49;15.30;;;7.80;;
9689;SDS011;4884;42.614;23.340;2023-03-14T00:04:15;24.83;;;12.37;;
9689;SDS011;4884;42.614;23.340;2023-03-14T00:06:40;25.77;;;14.07;;
9689;SDS011;4884;42.614;23.340;2023-03-14T00:09:06;19.97;;;10.90;;
9689;SDS011;4884;42.614;23.340;2023-03-14T00:11:31;14.80;;;7.67;;
9689;SDS011;4884;42.614;23.340;2023-03-14T00:13:56;19.43;;;9.40;;
9689;SDS011;4884;42.614;23.340;2023-03-14T00:16:22;25.37;;;9.87;;
9689;SDS011;4884;42.614;23.340;2023-03-14T00:18:47;19.13;;;9.00;;
9689;SDS011;4884;42.614;23.340;2023-03-14T00:21:13;20.83;;;10.53;;
9689;SDS011;4884;42.614;23.340;2023-03-14T00:23:39;21.17;;;9.57;;
9689;SDS011;4884;42.614;23.340;2023-03-14T00:26:10;18.00;;;8.80;;
9689;SDS011;4884;42.614;23.340;2023-03-14T00:28:37;12.40;;;8.57;;
9689;SDS011;4884;42.614;23.340;2023-03-14T00:31:03;12.10;;;7.37;;
9689;SDS011;4884;42.614;23.340;2023-03-14T00:33:32;11.27;;;7.27;;
9689;SDS011;4884;42.614;23.340;2023-03-14T00:35:58;14.10;;;7.83;;
9689;SDS011;4884;42.614;23.340;2023-03-14T00:38:32;9.07;;;6.30;;
9689;SDS011;4884;42.614;23.340;2023-03-14T00:40:58;8.40;;;5.27;;
9689;SDS011;4884;42.614;23.340;2023-03-14T00:43:23;5.77;;;4.40;;
9689;SDS011;4884;42.614;23.340;2023-03-14T00:45:49;18.23;;;9.67;;
9689;SDS011;4884;42.614;23.340;2023-03-14T00:48:16;12.80;;;7.37;;
9689;SDS011;4884;42.614;23.340;2023-03-14T00:50:42;12.47;;;7.90;;
9689;SDS011;4884;42.614;23.340;2023-03-14T00:53:08;16.37;;;8.60;;
9689;SDS011;4884;42.614;23.340;2023-03-14T00:55:36;10.73;;;7.00;;
9689;SDS011;4884;42.614;23.340;2023-03-14T00:58:02;18.43;;;9.13;;
9689;SDS011;4884;42.614;23.340;2023-03-14T01:00:27;25.83;;;10.23;;
9689;SDS011;4884;42.614;23.340;2023-03-14T01:02:53;19.03;;;9.73;;
9689;SDS011;4884;42.614;23.340;2023-03-14T01:05:18;26.33;;;10.73;;
9689;SDS011;4884;42.614;23.340;2023-03-14T01:07:43;16.87;;;8.80;;
9689;SDS011;4884;42.614;23.340;2023-03-14T01:10:09;14.77;;;7.97;;
9689;SDS011;4884;42.614;23.340;2023-03-14T01:12:35;10.00;;;7.47;;
9689;SDS011;4884;42.614;23.340;2023-03-14T01:15:00;10.83;;;7.97;;
9689;SDS011;4884;42.614;23.340;2023-03-14T01:17:26;14.10;;;8.60;;
9689;SDS011;4884;42.614;23.340;2023-03-14T01:19:51;12.47;;;8.53;;
9689;SDS011;4884;42.614;23.340;2023-03-14T01:22:16;12.07;;;7.50;;
9689;SDS011;4884;42.614;23.340;2023-03-14T01:24:42;14.07;;;8.30;;
9689;SDS011;4884;42.614;23.340;2023-03-14T01:27:07;13.50;;;8.70;;
9689;SDS011;4884;42.614;23.340;2023-03-14T01:29:32;13.60;;;8.97;;
9689;SDS011;4884;42.614;23.340;2023-03-14T01:31:58;17.60;;;9.77;;
9689;SDS011;4884;42.614;23.340;2023-03-14T01:34:23;15.37;;;8.47;;
9689;SDS011;4884;42.614;23.340;2023-03-14T01:36:49;14.20;;;8.87;;
9689;SDS011;4884;42.614;23.340;2023-03-14T01:39:14;21.33;;;9.63;;
9689;SDS011;4884;42.614;23.340;2023-03-14T01:41:40;17.37;;;9.00;;
9689;SDS011;4884;42.614;23.340;2023-03-14T01:44:08;38.37;;;14.23;;
9689;SDS011;4884;42.614;23.340;2023-03-14T01:49:27;49.27;;;16.67;;
9689;SDS011;4884;42.614;23.340;2023-03-14T01:54:37;42.50;;;15.87;;
9689;SDS011;4884;42.614;23.340;2023-03-14T01:57:11;34.90;;;11.73;;
9689;SDS011;4884;42.614;23.340;2023-03-14T01:59:40;33.93;;;11.43;;
9689;SDS011;4884;42.614;23.340;2023-03-14T02:02:11;28.07;;;11.63;;
9689;SDS011;4884;42.614;23.340;2023-03-14T02:04:37;23.73;;;11.70;;
9689;SDS011;4884;42.614;23.340;2023-03-14T02:07:06;20.87;;;9.33;;
9689;SDS011;4884;42.614;23.340;2023-03-14T02:09:35;24.90;;;10.20;;
9689;SDS011;4884;42.614;23.340;2023-03-14T02:12:01;26.17;;;11.10;;
9689;SDS011;4884;42.614;23.340;2023-03-14T02:14:28;35.00;;;12.73;;
9689;SDS011;4884;42.614;23.340;2023-03-14T02:16:58;49.57;;;14.57;;
9689;SDS011;4884;42.614;23.340;2023-03-14T02:22:10;24.37;;;9.57;;
9689;SDS011;4884;42.614;23.340;2023-03-14T02:24:43;19.03;;;10.03;;
9689;SDS011;4884;42.614;23.340;2023-03-14T02:27:30;12.23;;;8.13;;
9689;SDS011;4884;42.614;23.340;2023-03-14T02:30:00;17.03;;;8.07;;
9689;SDS011;4884;42.614;23.340;2023-03-14T02:32:28;18.37;;;8.73;;
9689;SDS011;4884;42.614;23.340;2023-03-14T02:34:57;28.87;;;12.13;;
9689;SDS011;4884;42.614;23.340;2023-03-14T02:37:24;39.57;;;15.13;;
9689;SDS011;4884;42.614;23.340;2023-03-14T02:39:52;50.57;;;15.93;;
9689;SDS011;4884;42.614;23.340;2023-03-14T02:42:18;52.43;;;17.03;;
9689;SDS011;4884;42.614;23.340;2023-03-14T02:44:48;44.17;;;15.47;;
9689;SDS011;4884;42.614;23.340;2023-03-14T02:47:14;55.57;;;17.23;;
9689;SDS011;4884;42.614;23.340;2023-03-14T02:49:40;59.07;;;18.07;;
9689;SDS011;4884;42.614;23.340;2023-03-14T02:52:05;50.07;;;15.83;;
9689;SDS011;4884;42.614;23.340;2023-03-14T02:54:31;49.63;;;16.00;;
9689;SDS011;4884;42.614;23.340;2023-03-14T02:56:56;37.27;;;14.23;;
9689;SDS011;4884;42.614;23.340;2023-03-14T02:59:21;20.30;;;10.03;;
9689;SDS011;4884;42.614;23.340;2023-03-14T03:01:47;19.97;;;7.10;;
9689;SDS011;4884;42.614;23.340;2023-03-14T03:04:12;14.13;;;7.00;;
9689;SDS011;4884;42.614;23.340;2023-03-14T03:06:37;18.97;;;8.20;;
9689;SDS011;4884;42.614;23.340;2023-03-14T03:09:03;37.70;;;13.63;;
9689;SDS011;4884;42.614;23.340;2023-03-14T03:11:28;36.50;;;13.60;;
9689;SDS011;4884;42.614;23.340;2023-03-14T03:13:53;39.77;;;13.03;;
9689;SDS011;4884;42.614;23.340;2023-03-14T03:16:19;29.97;;;10.53;;
9689;SDS011;4884;42.614;23.340;2023-03-14T03:18:44;27.20;;;10.10;;
9689;SDS011;4884;42.614;23.340;2023-03-14T03:21:09;40.23;;;13.17;;
9689;SDS011;4884;42.614;23.340;2023-03-14T03:23:35;30.23;;;10.23;;
9689;SDS011;4884;42.614;23.340;2023-03-14T03:26:00;31.20;;;10.83;;
9689;SDS011;4884;42.614;23.340;2023-03-14T03:28:27;33.43;;;11.13;;
9689;SDS011;4884;42.614;23.340;2023-03-14T03:30:52;20.43;;;7.23;;
9689;SDS011;4884;42.614;23.340;2023-03-14T03:33:18;24.10;;;9.23;;
9689;SDS011;4884;42.614;23.340;2023-03-14T03:35:47;39.37;;;10.17;;
9689;SDS011;4884;42.614;23.340;2023-03-14T03:38:16;35.47;;;11.30;;
9689;SDS011;4884;42.614;23.340;2023-03-14T03:40:41;34.23;;;11.57;;
9689;SDS011;4884;42.614;23.340;2023-03-14T03:43:08;26.03;;;10.00;;
9689;SDS011;4884;42.614;23.340;2023-03-14T03:45:34;38.17;;;12.97;;
9689;SDS011;4884;42.614;23.340;2023-03-14T03:47:59;30.70;;;11.93;;
9689;SDS011;4884;42.614;23.340;2023-03-14T03:50:25;38.77;;;13.07;;
9689;SDS011;4884;42.614;23.340;2023-03-14T03:52:50;28.27;;;10.23;;
9689;SDS011;4884;42.614;23.340;2023-03-14T03:55:15;25.17;;;10.40;;
9689;SDS011;4884;42.614;23.340;2023-03-14T03:57:41;31.80;;;11.47;;
9689;SDS011;4884;42.614;23.340;2023-03-14T04:00:06;37.90;;;12.07;;
9689;SDS011;4884;42.614;23.340;2023-03-14T04:02:35;29.17;;;12.47;;
9689;SDS011;4884;42.614;23.340;2023-03-14T04:05:00;37.53;;;12.03;;
9689;SDS011;4884;42.614;23.340;2023-03-14T04:07:25;47.33;;;15.70;;
9689;SDS011;4884;42.614;23.340;2023-03-14T04:09:51;39.27;;;14.20;;
9689;SDS011;4884;42.614;23.340;2023-03-14T04:12:16;66.70;;;21.73;;
9689;SDS011;4884;42.614;23.340;2023-03-14T04:14:41;30.43;;;12.13;;
9689;SDS011;4884;42.614;23.340;2023-03-14T04:17:07;13.03;;;7.70;;
9689;SDS011;4884;42.614;23.340;2023-03-14T04:19:32;12.97;;;7.97;;
9689;SDS011;4884;42.614;23.340;2023-03-14T04:21:58;22.40;;;9.30;;
9689;SDS011;4884;42.614;23.340;2023-03-14T04:24:23;18.93;;;9.13;;
9689;SDS011;4884;42.614;23.340;2023-03-14T04:26:48;15.60;;;8.73;;
9689;SDS011;4884;42.614;23.340;2023-03-14T04:29:14;17.40;;;10.27;;
9689;SDS011;4884;42.614;23.340;2023-03-14T04:31:39;23.73;;;13.10;;
9689;SDS011;4884;42.614;23.340;2023-03-14T04:34:04;48.40;;;21.07;;
9689;SDS011;4884;42.614;23.340;2023-03-14T04:36:30;103.90;;;44.87;;
9689;SDS011;4884;42.614;23.340;2023-03-14T04:38:55;67.27;;;30.43;;
9689;SDS011;4884;42.614;23.340;2023-03-14T04:41:20;56.07;;;26.57;;
9689;SDS011;4884;42.614;23.340;2023-03-14T04:43:46;19.23;;;10.30;;
9689;SDS011;4884;42.614;23.340;2023-03-14T04:46:11;19.47;;;11.97;;
9689;SDS011;4884;42.614;23.340;2023-03-14T04:48:37;43.73;;;25.13;;
9689;SDS011;4884;42.614;23.340;2023-03-14T04:51:03;37.50;;;25.10;;
9689;SDS011;4884;42.614;23.340;2023-03-14T04:53:28;33.17;;;19.70;;
9689;SDS011;4884;42.614;23.340;2023-03-14T04:55:54;20.80;;;13.27;;
9689;SDS011;4884;42.614;23.340;2023-03-14T04:58:21;18.20;;;12.30;;
9689;SDS011;4884;42.614;23.340;2023-03-14T05:00:47;26.50;;;12.27;;
9689;SDS011;4884;42.614;23.340;2023-03-14T05:03:14;21.63;;;14.30;;
9689;SDS011;4884;42.614;23.340;2023-03-14T05:05:40;31.23;;;16.13;;
9689;SDS011;4884;42.614;23.340;2023-03-14T05:08:05;23.83;;;15.33;;
9689;SDS011;4884;42.614;23.340;2023-03-14T05:10:31;21.67;;;14.43;;
9689;SDS011;4884;42.614;23.340;2023-03-14T05:12:56;30.23;;;17.37;;
9689;SDS011;4884;42.614;23.340;2023-03-14T05:15:21;25.83;;;14.43;;
9689;SDS011;4884;42.614;23.340;2023-03-14T05:17:47;20.90;;;11.23;;
9689;SDS011;4884;42.614;23.340;2023-03-14T05:20:14;21.13;;;13.07;;
9689;SDS011;4884;42.614;23.340;2023-03-14T05:22:40;17.37;;;12.30;;
9689;SDS011;4884;42.614;23.340;2023-03-14T05:25:06;20.70;;;10.90;;
9689;SDS011;4884;42.614;23.340;2023-03-14T05:27:32;14.90;;;9.47;;
9689;SDS011;4884;42.614;23.340;2023-03-14T05:29:58;17.37;;;9.37;;
9689;SDS011;4884;42.614;23.340;2023-03-14T05:32:23;12.30;;;9.03;;
9689;SDS011;4884;42.614;23.340;2023-03-14T05:34:48;12.40;;;8.60;;
9689;SDS011;4884;42.614;23.340;2023-03-14T05:37:14;14.80;;;9.40;;
9689;SDS011;4884;42.614;23.340;2023-03-14T05:39:39;13.43;;;8.20;;
9689;SDS011;4884;42.614;23.340;2023-03-14T05:42:04;34.37;;;20.10;;
9689;SDS011;4884;42.614;23.340;2023-03-14T05:44:30;44.50;;;20.40;;
9689;SDS011;4884;42.614;23.340;2023-03-14T05:46:55;16.27;;;9.67;;
9689;SDS011;4884;42.614;23.340;2023-03-14T05:49:20;13.27;;;8.17;;
9689;SDS011;4884;42.614;23.340;2023-03-14T05:51:46;11.27;;;8.60;;
9689;SDS011;4884;42.614;23.340;2023-03-14T05:54:11;9.57;;;8.07;;
9689;SDS011;4884;42.614;23.340;2023-03-14T05:56:36;10.47;;;7.50;;
9689;SDS011;4884;42.614;23.340;2023-03-14T05:59:02;14.60;;;7.97;;
9689;SDS011;4884;42.614;23.340;2023-03-14T06:01:28;15.17;;;9.73;;
9689;SDS011;4884;42.614;23.340;2023-03-14T06:03:54;15.67;;;9.80;;
9689;SDS011;4884;42.614;23.340;2023-03-14T06:06:19;13.47;;;9.63;;
9689;SDS011;4884;42.614;23.340;2023-03-14T06:08:45;13.93;;;9.77;;
9689;SDS011;4884;42.614;23.340;2023-03-14T06:11:10;13.60;;;11.50;;
9689;SDS011;4884;42.614;23.340;2023-03-14T06:13:35;14.27;;;10.40;;
9689;SDS011;4884;42.614;23.340;2023-03-14T06:16:01;13.70;;;11.27;;
9689;SDS011;4884;42.614;23.340;2023-03-14T06:18:26;13.43;;;12.03;;
9689;SDS011;4884;42.614;23.340;2023-03-14T06:20:53;17.93;;;13.13;;
9689;SDS011;4884;42.614;23.340;2023-03-14T06:23:19;17.70;;;12.97;;
9689;SDS011;4884;42.614;23.340;2023-03-14T06:25:45;14.67;;;11.57;;
9689;SDS011;4884;42.614;23.340;2023-03-14T06:28:10;17.93;;;12.17;;
9689;SDS011;4884;42.614;23.340;2023-03-14T06:30:36;17.23;;;12.03;;
9689;SDS011;4884;42.614;23.340;2023-03-14T06:33:01;21.57;;;12.13;;
9689;SDS011;4884;42.614;23.340;2023-03-14T06:35:26;20.77;;;12.67;;
9689;SDS011;4884;42.614;23.340;2023-03-14T06:37:51;19.83;;;12.20;;
9689;SDS011;4884;42.614;23.340;2023-03-14T06:40:17;16.67;;;12.37;;
9689;SDS011;4884;42.614;23.340;2023-03-14T06:42:43;18.10;;;11.80;;
9689;SDS011;4884;42.614;23.340;2023-03-14T06:45:09;14.83;;;11.63;;
9689;SDS011;4884;42.614;23.340;2023-03-14T06:47:35;18.00;;;11.87;;
9689;SDS011;4884;42.614;23.340;2023-03-14T06:50:01;13.37;;;11.53;;
9689;SDS011;4884;42.614;23.340;2023-03-14T06:52:26;13.80;;;11.60;;
9689;SDS011;4884;42.614;23.340;2023-03-14T06:54:51;13.80;;;9.40;;
9689;SDS011;4884;42.614;23.340;2023-03-14T06:57:17;11.30;;;8.37;;
9689;SDS011;4884;42.614;23.340;2023-03-14T06:59:42;9.70;;;8.57;;
9689;SDS011;4884;42.614;23.340;2023-03-14T07:02:09;10.83;;;8.50;;
9689;SDS011;4884;42.614;23.340;2023-03-14T07:04:36;10.70;;;7.67;;
9689;SDS011;4884;42.614;23.340;2023-03-14T07:07:01;11.03;;;7.90;;
9689;SDS011;4884;42.614;23.340;2023-03-14T07:09:27;8.00;;;6.73;;
9689;SDS011;4884;42.614;23.340;2023-03-14T07:11:52;9.13;;;6.67;;
9689;SDS011;4884;42.614;23.340;2023-03-14T07:14:17;10.03;;;7.17;;
9689;SDS011;4884;42.614;23.340;2023-03-14T07:16:43;10.57;;;7.20;;
9689;SDS011;4884;42.614;23.340;2023-03-14T07:19:08;8.27;;;6.03;;
9689;SDS011;4884;42.614;23.340;2023-03-14T07:21:34;11.27;;;7.13;;
9689;SDS011;4884;42.614;23.340;2023-03-14T07:23:59;6.70;;;6.00;;
9689;SDS011;4884;42.614;23.340;2023-03-14T07:26:25;7.80;;;6.67;;
9689;SDS011;4884;42.614;23.340;2023-03-14T07:28:50;8.47;;;6.27;;
9689;SDS011;4884;42.614;23.340;2023-03-14T07:31:15;9.53;;;6.60;;
9689;SDS011;4884;42.614;23.340;2023-03-14T07:33:41;9.13;;;7.30;;
9689;SDS011;4884;42.614;23.340;2023-03-14T07:36:06;8.10;;;7.17;;
9689;SDS011;4884;42.614;23.340;2023-03-14T07:38:32;7.17;;;6.47;;
9689;SDS011;4884;42.614;23.340;2023-03-14T07:40:58;9.77;;;6.30;;
9689;SDS011;4884;42.614;23.340;2023-03-14T07:43:28;9.13;;;6.50;;
9689;SDS011;4884;42.614;23.340;2023-03-14T07:45:53;11.40;;;7.03;;
9689;SDS011;4884;42.614;23.340;2023-03-14T07:48:19;8.07;;;6.20;;
9689;SDS011;4884;42.614;23.340;2023-03-14T07:50:48;7.70;;;5.87;;
9689;SDS011;4884;42.614;23.340;2023-03-14T07:53:14;8.60;;;6.87;;
9689;SDS011;4884;42.614;23.340;2023-03-14T07:55:39;7.03;;;6.37;;
9689;SDS011;4884;42.614;23.340;2023-03-14T07:58:05;8.77;;;6.77;;
9689;SDS011;4884;42.614;23.340;2023-03-14T08:00:30;12.13;;;6.60;;
9689;SDS011;4884;42.614;23.340;2023-03-14T08:02:55;15.33;;;7.00;;
9689;SDS011;4884;42.614;23.340;2023-03-14T08:05:21;8.60;;;6.80;;
9689;SDS011;4884;42.614;23.340;2023-03-14T08:07:46;14.23;;;6.90;;
9689;SDS011;4884;42.614;23.340;2023-03-14T08:10:11;10.23;;;7.60;;
9689;SDS011;4884;42.614;23.340;2023-03-14T08:12:40;9.40;;;7.40;;
9689;SDS011;4884;42.614;23.340;2023-03-14T08:15:06;12.40;;;7.67;;
9689;SDS011;4884;42.614;23.340;2023-03-14T08:17:31;10.20;;;8.20;;
9689;SDS011;4884;42.614;23.340;2023-03-14T08:19:57;10.73;;;8.60;;
9689;SDS011;4884;42.614;23.340;2023-03-14T08:22:22;10.80;;;8.10;;
9689;SDS011;4884;42.614;23.340;2023-03-14T08:24:48;11.43;;;8.07;;
9689;SDS011;4884;42.614;23.340;2023-03-14T08:27:13;10.30;;;8.40;;
9689;SDS011;4884;42.614;23.340;2023-03-14T08:29:39;10.10;;;9.13;;
9689;SDS011;4884;42.614;23.340;2023-03-14T08:32:06;12.33;;;8.97;;
9689;SDS011;4884;42.614;23.340;2023-03-14T08:34:32;12.23;;;9.13;;
9689;SDS011;4884;42.614;23.340;2023-03-14T08:36:58;8.77;;;7.73;;
9689;SDS011;4884;42.614;23.340;2023-03-14T08:39:23;11.93;;;8.43;;
9689;SDS011;4884;42.614;23.340;2023-03-14T08:41:49;12.30;;;9.17;;
9689;SDS011;4884;42.614;23.340;2023-03-14T08:44:14;12.17;;;8.03;;
9689;SDS011;4884;42.614;23.340;2023-03-14T08:46:40;11.23;;;9.37;;
9689;SDS011;4884;42.614;23.340;2023-03-14T08:49:05;12.30;;;9.47;;
9689;SDS011;4884;42.614;23.340;2023-03-14T08:51:30;10.73;;;8.40;;
9689;SDS011;4884;42.614;23.340;2023-03-14T08:53:56;13.47;;;8.70;;
9689;SDS011;4884;42.614;23.340;2023-03-14T08:56:21;9.73;;;7.97;;
9689;SDS011;4884;42.614;23.340;2023-03-14T08:58:46;13.70;;;8.73;;
9689;SDS011;4884;42.614;23.340;2023-03-14T09:01:12;9.73;;;8.70;;
9689;SDS011;4884;42.614;23.340;2023-03-14T09:03:37;10.70;;;7.93;;
9689;SDS011;4884;42.614;23.340;2023-03-14T09:06:07;11.83;;;9.20;;
9689;SDS011;4884;42.614;23.340;2023-03-14T09:08:34;10.03;;;8.97;;
9689;SDS011;4884;42.614;23.340;2023-03-14T09:10:59;11.90;;;8.33;;
9689;SDS011;4884;42.614;23.340;2023-03-14T09:13:25;11.47;;;7.97;;
9689;SDS011;4884;42.614;23.340;2023-03-14T09:15:51;13.93;;;8.30;;
9689;SDS011;4884;42.614;23.340;2023-03-14T09:18:17;14.43;;;8.47;;
9689;SDS011;4884;42.614;23.340;2023-03-14T09:20:42;9.70;;;8.67;;
9689;SDS011;4884;42.614;23.340;2023-03-14T09:23:07;11.23;;;8.40;;
9689;SDS011;4884;42.614;23.340;2023-03-14T09:25:33;11.23;;;10.03;;
9689;SDS011;4884;42.614;23.340;2023-03-14T09:27:58;13.50;;;9.57;;
9689;SDS011;4884;42.614;23.340;2023-03-14T09:30:23;12.67;;;10.00;;
9689;SDS011;4884;42.614;23.340;2023-03-14T09:32:49;10.83;;;9.47;;
9689;SDS011;4884;42.614;23.340;2023-03-14T09:35:14;13.63;;;9.53;;
9689;SDS011;4884;42.614;23.340;2023-03-14T09:37:40;10.17;;;9.10;;
9689;SDS011;4884;42.614;23.340;2023-03-14T09:40:05;15.80;;;9.80;;
9689;SDS011;4884;42.614;23.340;2023-03-14T09:42:35;11.43;;;10.20;;
9689;SDS011;4884;42.614;23.340;2023-03-14T09:45:04;11.83;;;9.57;;
9689;SDS011;4884;42.614;23.340;2023-03-14T09:47:30;11.33;;;8.97;;
9689;SDS011;4884;42.614;23.340;2023-03-14T09:49:58;15.07;;;10.40;;
9689;SDS011;4884;42.614;23.340;2023-03-14T09:52:33;12.03;;;10.03;;
9689;SDS011;4884;42.614;23.340;2023-03-14T09:55:11;12.00;;;10.80;;
9689;SDS011;4884;42.614;23.340;2023-03-14T09:57:39;14.57;;;10.53;;
9689;SDS011;4884;42.614;23.340;2023-03-14T10:00:13;11.90;;;10.50;;
9689;SDS011;4884;42.614;23.340;2023-03-14T10:02:51;15.77;;;10.40;;
9689;SDS011;4884;42.614;23.340;2023-03-14T10:05:19;14.37;;;10.57;;
9689;SDS011;4884;42.614;23.340;2023-03-14T10:07:46;12.80;;;10.57;;
9689;SDS011;4884;42.614;23.340;2023-03-14T10:10:21;9.30;;;8.30;;
9689;SDS011;4884;42.614;23.340;2023-03-14T10:12:54;15.20;;;10.20;;
9689;SDS011;4884;42.614;23.340;2023-03-14T10:15:27;11.40;;;9.43;;
9689;SDS011;4884;42.614;23.340;2023-03-14T10:17:58;14.17;;;10.27;;
9689;SDS011;4884;42.614;23.340;2023-03-14T10:20:29;9.50;;;8.50;;
9689;SDS011;4884;42.614;23.340;2023-03-14T10:23:18;9.13;;;7.93;;
9689;SDS011;4884;42.614;23.340;2023-03-14T10:31:04;10.37;;;8.63;;
9689;SDS011;4884;42.614;23.340;2023-03-14T10:33:31;13.47;;;8.20;;
9689;SDS011;4884;42.614;23.340;2023-03-14T10:38:41;9.97;;;7.53;;
9689;SDS011;4884;42.614;23.340;2023-03-14T10:41:19;10.43;;;8.27;;
9689;SDS011;4884;42.614;23.340;2023-03-14T10:43:49;9.50;;;7.63;;
9689;SDS011;4884;42.614;23.340;2023-03-14T10:46:17;9.27;;;7.80;;
9689;SDS011;4884;42.614;23.340;2023-03-14T10:48:43;10.17;;;8.33;;
9689;SDS011;4884;42.614;23.340;2023-03-14T10:51:11;10.37;;;8.03;;
9689;SDS011;4884;42.614;23.340;2023-03-14T10:54:22;8.53;;;6.97;;
9689;SDS011;4884;42.614;23.340;2023-03-14T10:56:55;9.70;;;7.60;;
9689;SDS011;4884;42.614;23.340;2023-03-14T10:59:22;10.73;;;8.47;;
9689;SDS011;4884;42.614;23.340;2023-03-14T11:01:49;8.10;;;6.80;;
9689;SDS011;4884;42.614;23.340;2023-03-14T11:07:24;7.90;;;7.20;;
9689;SDS011;4884;42.614;23.340;2023-03-14T11:09:56;7.30;;;6.60;;
9689;SDS011;4884;42.614;23.340;2023-03-14T11:15:06;6.67;;;6.07;;
9689;SDS011;4884;42.614;23.340;2023-03-14T11:17:49;7.27;;;6.37;;
9689;SDS011;4884;42.614;23.340;2023-03-14T11:20:33;6.83;;;5.73;;
9689;SDS011;4884;42.614;23.340;2023-03-14T11:23:13;8.70;;;6.03;;
9689;SDS011;4884;42.614;23.340;2023-03-14T11:25:56;8.63;;;5.13;;
9689;SDS011;4884;42.614;23.340;2023-03-14T11:28:50;6.23;;;5.63;;
9689;SDS011;4884;42.614;23.340;2023-03-14T11:31:19;5.83;;;5.23;;
9689;SDS011;4884;42.614;23.340;2023-03-14T11:33:53;4.90;;;4.50;;
9689;SDS011;4884;42.614;23.340;2023-03-14T11:36:32;5.33;;;4.13;;
9689;SDS011;4884;42.614;23.340;2023-03-14T11:39:07;9.83;;;5.00;;
9689;SDS011;4884;42.614;23.340;2023-03-14T11:41:38;5.73;;;5.23;;
9689;SDS011;4884;42.614;23.340;2023-03-14T11:44:27;6.60;;;4.63;;
9689;SDS011;4884;42.614;23.340;2023-03-14T11:46:57;8.10;;;5.10;;
9689;SDS011;4884;42.614;23.340;2023-03-14T11:49:30;6.90;;;4.20;;
9689;SDS011;4884;42.614;23.340;2023-03-14T11:51:59;4.63;;;4.23;;
9689;SDS011;4884;42.614;23.340;2023-03-14T12:04:42;3.60;;;3.27;;
9689;SDS011;4884;42.614;23.340;2023-03-14T12:07:34;4.00;;;3.30;;
9689;SDS011;4884;42.614;23.340;2023-03-14T12:10:07;3.43;;;3.00;;
9689;SDS011;4884;42.614;23.340;2023-03-14T12:12:32;6.03;;;3.43;;
9689;SDS011;4884;42.614;23.340;2023-03-14T12:14:59;4.17;;;3.73;;
9689;SDS011;4884;42.614;23.340;2023-03-14T12:17:36;4.80;;;3.50;;
9689;SDS011;4884;42.614;23.340;2023-03-14T12:20:17;3.73;;;3.43;;
9689;SDS011;4884;42.614;23.340;2023-03-14T12:22:50;7.03;;;3.60;;
9689;SDS011;4884;42.614;23.340;2023-03-14T12:25:27;4.93;;;3.10;;
9689;SDS011;4884;42.614;23.340;2023-03-14T12:30:34;4.23;;;3.83;;
9689;SDS011;4884;42.614;23.340;2023-03-14T12:35:43;3.73;;;3.17;;
9689;SDS011;4884;42.614;23.340;2023-03-14T12:38:16;3.23;;;2.80;;
9689;SDS011;4884;42.614;23.340;2023-03-14T12:43:42;5.10;;;3.33;;
9689;SDS011;4884;42.614;23.340;2023-03-14T12:46:08;6.87;;;3.70;;
9689;SDS011;4884;42.614;23.340;2023-03-14T12:49:24;5.33;;;3.37;;
9689;SDS011;4884;42.614;23.340;2023-03-14T12:51:36;3.27;;;2.93;;
9689;SDS011;4884;42.614;23.340;2023-03-14T12:56:54;5.00;;;3.17;;
9689;SDS011;4884;42.614;23.340;2023-03-14T13:04:33;3.43;;;3.13;;
9689;SDS011;4884;42.614;23.340;2023-03-14T13:06:59;4.93;;;4.00;;
9689;SDS011;4884;42.614;23.340;2023-03-14T13:12:00;4.13;;;2.80;;
9689;SDS011;4884;42.614;23.340;2023-03-14T13:14:28;3.50;;;2.57;;
9689;SDS011;4884;42.614;23.340;2023-03-14T13:16:54;6.03;;;2.97;;
9689;SDS011;4884;42.614;23.340;2023-03-14T13:19:21;3.10;;;2.80;;
9689;SDS011;4884;42.614;23.340;2023-03-14T13:21:49;2.90;;;2.70;;
9689;SDS011;4884;42.614;23.340;2023-03-14T13:24:21;2.53;;;2.30;;
9689;SDS011;4884;42.614;23.340;2023-03-14T13:26:47;4.80;;;2.63;;
9689;SDS011;4884;42.614;23.340;2023-03-14T13:29:18;3.07;;;2.50;;
9689;SDS011;4884;42.614;23.340;2023-03-14T13:31:45;4.13;;;2.50;;
9689;SDS011;4884;42.614;23.340;2023-03-14T13:34:12;4.00;;;2.23;;
9689;SDS011;4884;42.614;23.340;2023-03-14T13:36:38;5.93;;;2.80;;
9689;SDS011;4884;42.614;23.340;2023-03-14T13:39:04;4.37;;;2.50;;
9689;SDS011;4884;42.614;23.340;2023-03-14T13:41:36;7.73;;;6.40;;
9689;SDS011;4884;42.614;23.340;2023-03-14T13:44:03;8.27;;;2.90;;
9689;SDS011;4884;42.614;23.340;2023-03-14T13:46:32;4.33;;;2.23;;
9689;SDS011;4884;42.614;23.340;2023-03-14T13:49:00;3.77;;;2.40;;
9689;SDS011;4884;42.614;23.340;2023-03-14T13:51:27;3.53;;;2.50;;
9689;SDS011;4884;42.614;23.340;2023-03-14T13:53:57;3.63;;;2.13;;
9689;SDS011;4884;42.614;23.340;2023-03-14T13:56:28;4.57;;;2.30;;
9689;SDS011;4884;42.614;23.340;2023-03-14T13:58:55;4.37;;;2.60;;
9689;SDS011;4884;42.614;23.340;2023-03-14T14:03:54;13.20;;;2.80;;
9689;SDS011;4884;42.614;23.340;2023-03-14T14:06:38;3.13;;;2.63;;
9689;SDS011;4884;42.614;23.340;2023-03-14T14:09:20;2.77;;;2.50;;
9689;SDS011;4884;42.614;23.340;2023-03-14T14:16:46;4.20;;;2.57;;
9689;SDS011;4884;42.614;23.340;2023-03-14T14:19:12;2.20;;;2.10;;
9689;SDS011;4884;42.614;23.340;2023-03-14T14:21:38;2.20;;;2.00;;
9689;SDS011;4884;42.614;23.340;2023-03-14T14:24:04;3.70;;;2.60;;
9689;SDS011;4884;42.614;23.340;2023-03-14T14:26:30;2.60;;;2.40;;
9689;SDS011;4884;42.614;23.340;2023-03-14T14:29:04;5.40;;;2.47;;
9689;SDS011;4884;42.614;23.340;2023-03-14T14:31:30;4.47;;;2.57;;
9689;SDS011;4884;42.614;23.340;2023-03-14T14:38:51;2.60;;;2.40;;
9689;SDS011;4884;42.614;23.340;2023-03-14T14:41:18;2.50;;;2.30;;
9689;SDS011;4884;42.614;23.340;2023-03-14T14:43:43;2.73;;;2.23;;
9689;SDS011;4884;42.614;23.340;2023-03-14T14:46:13;2.77;;;2.47;;
9689;SDS011;4884;42.614;23.340;2023-03-14T14:48:41;2.87;;;2.63;;
9689;SDS011;4884;42.614;23.340;2023-03-14T14:51:07;3.30;;;2.17;;
9689;SDS011;4884;42.614;23.340;2023-03-14T14:53:36;2.10;;;1.90;;
9689;SDS011;4884;42.614;23.340;2023-03-14T14:56:04;5.17;;;1.87;;
9689;SDS011;4884;42.614;23.340;2023-03-14T14:58:46;2.10;;;2.00;;
9689;SDS011;4884;42.614;23.340;2023-03-14T15:01:22;2.30;;;1.83;;
9689;SDS011;4884;42.614;23.340;2023-03-14T15:03:50;2.07;;;1.97;;
9689;SDS011;4884;42.614;23.340;2023-03-14T15:06:16;2.03;;;1.83;;
9689;SDS011;4884;42.614;23.340;2023-03-14T15:08:43;1.93;;;1.73;;
9689;SDS011;4884;42.614;23.340;2023-03-14T15:11:19;2.63;;;1.93;;
9689;SDS011;4884;42.614;23.340;2023-03-14T15:13:47;4.83;;;1.80;;
9689;SDS011;4884;42.614;23.340;2023-03-14T15:16:17;1.67;;;1.53;;
9689;SDS011;4884;42.614;23.340;2023-03-14T15:18:43;2.23;;;1.80;;
9689;SDS011;4884;42.614;23.340;2023-03-14T15:21:10;2.13;;;1.93;;
9689;SDS011;4884;42.614;23.340;2023-03-14T15:23:35;2.63;;;2.37;;
9689;SDS011;4884;42.614;23.340;2023-03-14T15:26:00;3.20;;;1.73;;
9689;SDS011;4884;42.614;23.340;2023-03-14T15:28:27;3.37;;;2.10;;
9689;SDS011;4884;42.614;23.340;2023-03-14T15:30:54;8.37;;;3.53;;
9689;SDS011;4884;42.614;23.340;2023-03-14T15:33:21;4.30;;;2.07;;
9689;SDS011;4884;42.614;23.340;2023-03-14T15:35:47;5.33;;;2.57;;
9689;SDS011;4884;42.614;23.340;2023-03-14T15:38:14;6.10;;;4.20;;
9689;SDS011;4884;42.614;23.340;2023-03-14T15:40:41;4.50;;;3.27;;
9689;SDS011;4884;42.614;23.340;2023-03-14T15:43:07;11.60;;;9.27;;
9689;SDS011;4884;42.614;23.340;2023-03-14T15:45:33;6.27;;;4.40;;
9689;SDS011;4884;42.614;23.340;2023-03-14T15:47:59;4.97;;;3.40;;
9689;SDS011;4884;42.614;23.340;2023-03-14T15:50:24;7.10;;;6.00;;
9689;SDS011;4884;42.614;23.340;2023-03-14T15:52:50;5.70;;;4.40;;
9689;SDS011;4884;42.614;23.340;2023-03-14T15:55:16;3.17;;;2.87;;